sensor_id;sensor_type;location;lat;lon;timestamp;temperature;humidity
19164;DHT22;9714;51.208;4.242;2023-07-28T00:01:40;19.80;99.90
19164;DHT22;9714;51.208;4.242;2023-07-28T00:04:07;19.80;99.90
19164;DHT22;9714;51.208;4.242;2023-07-28T00:06:36;19.80;99.90
19164;DHT22;9714;51.208;4.242;2023-07-28T00:09:04;19.80;99.90
19164;DHT22;9714;51.208;4.242;2023-07-28T00:11:37;19.80;99.90
19164;DHT22;9714;51.208;4.242;2023-07-28T00:14:04;19.80;99.90
19164;DHT22;9714;51.208;4.242;2023-07-28T00:16:33;19.90;99.90
19164;DHT22;9714;51.208;4.242;2023-07-28T00:19:01;19.70;99.90
19164;DHT22;9714;51.208;4.242;2023-07-28T00:21:29;19.70;99.90
19164;DHT22;9714;51.208;4.242;2023-07-28T00:23:57;19.80;99.90
19164;DHT22;9714;51.208;4.242;2023-07-28T00:26:28;19.80;99.90
19164;DHT22;9714;51.208;4.242;2023-07-28T00:28:55;19.90;99.90
19164;DHT22;9714;51.208;4.242;2023-07-28T00:31:23;19.90;99.90
19164;DHT22;9714;51.208;4.242;2023-07-28T00:33:50;19.80;99.90
19164;DHT22;9714;51.208;4.242;2023-07-28T00:36:17;19.80;99.90
19164;DHT22;9714;51.208;4.242;2023-07-28T00:38:45;19.80;99.90
19164;DHT22;9714;51.208;4.242;2023-07-28T00:41:12;19.80;99.90
19164;DHT22;9714;51.208;4.242;2023-07-28T00:43:40;19.90;99.90
19164;DHT22;9714;51.208;4.242;2023-07-28T00:46:08;19.90;99.90
19164;DHT22;9714;51.208;4.242;2023-07-28T00:48:36;19.80;99.90
19164;DHT22;9714;51.208;4.242;2023-07-28T00:51:04;19.80;99.90
19164;DHT22;9714;51.208;4.242;2023-07-28T00:53:31;19.80;99.90
19164;DHT22;9714;51.208;4.242;2023-07-28T00:56:00;19.70;99.90
19164;DHT22;9714;51.208;4.242;2023-07-28T00:58:30;19.70;99.90
19164;DHT22;9714;51.208;4.242;2023-07-28T01:00:59;19.80;99.90
19164;DHT22;9714;51.208;4.242;2023-07-28T01:03:26;19.80;99.90
19164;DHT22;9714;51.208;4.242;2023-07-28T01:05:58;19.80;99.90
19164;DHT22;9714;51.208;4.242;2023-07-28T01:08:32;19.70;99.90
19164;DHT22;9714;51.208;4.242;2023-07-28T01:11:00;19.80;99.90
19164;DHT22;9714;51.208;4.242;2023-07-28T01:13:29;19.90;99.90
19164;DHT22;9714;51.208;4.242;2023-07-28T01:15:55;19.70;99.90
19164;DHT22;9714;51.208;4.242;2023-07-28T01:18:25;19.70;99.90
19164;DHT22;9714;51.208;4.242;2023-07-28T01:20:54;19.70;99.90
19164;DHT22;9714;51.208;4.242;2023-07-28T01:23:37;19.80;99.90
19164;DHT22;9714;51.208;4.242;2023-07-28T01:26:09;19.80;99.90
19164;DHT22;9714;51.208;4.242;2023-07-28T01:28:39;19.80;99.90
19164;DHT22;9714;51.208;4.242;2023-07-28T01:31:08;19.80;99.90
19164;DHT22;9714;51.208;4.242;2023-07-28T01:33:36;19.70;99.90
19164;DHT22;9714;51.208;4.242;2023-07-28T01:36:03;19.80;99.90
19164;DHT22;9714;51.208;4.242;2023-07-28T01:38:30;19.90;99.90
19164;DHT22;9714;51.208;4.242;2023-07-28T01:40:58;19.90;99.90
19164;DHT22;9714;51.208;4.242;2023-07-28T01:43:26;19.90;99.90
19164;DHT22;9714;51.208;4.242;2023-07-28T01:45:55;19.90;99.90
19164;DHT22;9714;51.208;4.242;2023-07-28T01:48:22;20.00;99.90
19164;DHT22;9714;51.208;4.242;2023-07-28T01:50:49;19.90;99.90
19164;DHT22;9714;51.208;4.242;2023-07-28T01:53:16;19.90;99.90
19164;DHT22;9714;51.208;4.242;2023-07-28T01:55:42;19.90;99.90
19164;DHT22;9714;51.208;4.242;2023-07-28T01:58:10;19.90;99.90
19164;DHT22;9714;51.208;4.242;2023-07-28T02:00:37;20.00;99.90
19164;DHT22;9714;51.208;4.242;2023-07-28T02:03:05;20.10;99.90
19164;DHT22;9714;51.208;4.242;2023-07-28T02:05:32;20.10;99.90
19164;DHT22;9714;51.208;4.242;2023-07-28T02:07:59;20.10;99.90
19164;DHT22;9714;51.208;4.242;2023-07-28T02:10:27;20.10;99.90
19164;DHT22;9714;51.208;4.242;2023-07-28T02:12:54;20.00;99.90
19164;DHT22;9714;51.208;4.242;2023-07-28T02:15:21;20.00;99.90
19164;DHT22;9714;51.208;4.242;2023-07-28T02:17:48;20.00;99.90
19164;DHT22;9714;51.208;4.242;2023-07-28T02:20:17;20.00;99.90
19164;DHT22;9714;51.208;4.242;2023-07-28T02:22:44;20.00;99.90
19164;DHT22;9714;51.208;4.242;2023-07-28T02:25:11;20.00;99.90
19164;DHT22;9714;51.208;4.242;2023-07-28T02:27:38;20.00;99.90
19164;DHT22;9714;51.208;4.242;2023-07-28T02:30:06;20.10;99.90
19164;DHT22;9714;51.208;4.242;2023-07-28T02:32:34;20.00;99.90
19164;DHT22;9714;51.208;4.242;2023-07-28T02:35:01;20.00;99.90
19164;DHT22;9714;51.208;4.242;2023-07-28T02:37:29;20.00;99.90
19164;DHT22;9714;51.208;4.242;2023-07-28T02:39:56;20.00;99.90
19164;DHT22;9714;51.208;4.242;2023-07-28T02:42:24;20.00;99.90
19164;DHT22;9714;51.208;4.242;2023-07-28T02:44:53;19.80;99.90
19164;DHT22;9714;51.208;4.242;2023-07-28T02:47:20;19.80;99.90
19164;DHT22;9714;51.208;4.242;2023-07-28T02:49:47;19.90;99.90
19164;DHT22;9714;51.208;4.242;2023-07-28T02:52:14;19.80;99.90
19164;DHT22;9714;51.208;4.242;2023-07-28T02:54:42;19.70;99.90
19164;DHT22;9714;51.208;4.242;2023-07-28T02:57:09;19.80;99.90
19164;DHT22;9714;51.208;4.242;2023-07-28T02:59:36;19.80;99.90
19164;DHT22;9714;51.208;4.242;2023-07-28T03:02:03;19.80;99.90
19164;DHT22;9714;51.208;4.242;2023-07-28T03:04:30;19.80;99.90
19164;DHT22;9714;51.208;4.242;2023-07-28T03:06:57;19.80;99.90
19164;DHT22;9714;51.208;4.242;2023-07-28T03:09:26;19.80;99.90
19164;DHT22;9714;51.208;4.242;2023-07-28T03:11:55;19.80;99.90
19164;DHT22;9714;51.208;4.242;2023-07-28T03:14:22;19.80;99.90
19164;DHT22;9714;51.208;4.242;2023-07-28T03:16:49;19.80;99.90
19164;DHT22;9714;51.208;4.242;2023-07-28T03:19:16;19.70;99.90
19164;DHT22;9714;51.208;4.242;2023-07-28T03:21:43;19.70;99.90
19164;DHT22;9714;51.208;4.242;2023-07-28T03:24:11;19.90;99.90
19164;DHT22;9714;51.208;4.242;2023-07-28T03:26:38;19.80;99.90
19164;DHT22;9714;51.208;4.242;2023-07-28T03:29:06;19.70;99.90
19164;DHT22;9714;51.208;4.242;2023-07-28T03:31:33;19.80;99.90
19164;DHT22;9714;51.208;4.242;2023-07-28T03:34:01;19.80;99.90
19164;DHT22;9714;51.208;4.242;2023-07-28T03:36:28;19.90;99.90
19164;DHT22;9714;51.208;4.242;2023-07-28T03:38:55;19.90;99.90
19164;DHT22;9714;51.208;4.242;2023-07-28T03:41:22;19.90;99.90
19164;DHT22;9714;51.208;4.242;2023-07-28T03:43:49;19.90;99.90
19164;DHT22;9714;51.208;4.242;2023-07-28T03:46:18;20.00;99.90
19164;DHT22;9714;51.208;4.242;2023-07-28T03:48:45;19.90;99.90
19164;DHT22;9714;51.208;4.242;2023-07-28T03:51:12;19.90;99.90
19164;DHT22;9714;51.208;4.242;2023-07-28T03:53:39;20.00;99.90
19164;DHT22;9714;51.208;4.242;2023-07-28T03:56:06;19.90;99.90
19164;DHT22;9714;51.208;4.242;2023-07-28T03:58:33;20.00;99.90
19164;DHT22;9714;51.208;4.242;2023-07-28T04:01:01;19.90;99.90
19164;DHT22;9714;51.208;4.242;2023-07-28T04:03:29;19.90;99.90
19164;DHT22;9714;51.208;4.242;2023-07-28T04:05:56;19.80;99.90
19164;DHT22;9714;51.208;4.242;2023-07-28T04:08:23;19.70;99.90
19164;DHT22;9714;51.208;4.242;2023-07-28T04:10:50;19.80;99.90
19164;DHT22;9714;51.208;4.242;2023-07-28T04:13:19;20.00;99.90
19164;DHT22;9714;51.208;4.242;2023-07-28T04:15:46;20.10;99.90
19164;DHT22;9714;51.208;4.242;2023-07-28T04:18:13;20.10;99.90
19164;DHT22;9714;51.208;4.242;2023-07-28T04:20:42;20.10;99.90
19164;DHT22;9714;51.208;4.242;2023-07-28T04:23:09;20.10;99.90
19164;DHT22;9714;51.208;4.242;2023-07-28T04:25:36;20.00;99.90
19164;DHT22;9714;51.208;4.242;2023-07-28T04:28:03;20.00;99.90
19164;DHT22;9714;51.208;4.242;2023-07-28T04:30:31;20.10;99.90
19164;DHT22;9714;51.208;4.242;2023-07-28T04:32:58;20.20;99.90
19164;DHT22;9714;51.208;4.242;2023-07-28T04:35:25;20.20;99.90
19164;DHT22;9714;51.208;4.242;2023-07-28T04:37:53;20.00;99.90
19164;DHT22;9714;51.208;4.242;2023-07-28T04:40:20;20.10;99.90
19164;DHT22;9714;51.208;4.242;2023-07-28T04:42:47;20.10;99.90
19164;DHT22;9714;51.208;4.242;2023-07-28T04:45:18;20.20;99.90
19164;DHT22;9714;51.208;4.242;2023-07-28T04:47:46;20.00;99.90
19164;DHT22;9714;51.208;4.242;2023-07-28T04:50:13;20.20;99.90
19164;DHT22;9714;51.208;4.242;2023-07-28T04:52:40;20.30;99.90
19164;DHT22;9714;51.208;4.242;2023-07-28T04:55:09;20.30;99.90
19164;DHT22;9714;51.208;4.242;2023-07-28T04:57:36;20.20;99.90
19164;DHT22;9714;51.208;4.242;2023-07-28T05:00:04;20.20;99.90
19164;DHT22;9714;51.208;4.242;2023-07-28T05:02:31;20.30;99.90
19164;DHT22;9714;51.208;4.242;2023-07-28T05:04:58;20.30;99.90
19164;DHT22;9714;51.208;4.242;2023-07-28T05:07:25;20.20;99.90
19164;DHT22;9714;51.208;4.242;2023-07-28T05:09:53;20.20;99.90
19164;DHT22;9714;51.208;4.242;2023-07-28T05:12:22;20.20;99.90
19164;DHT22;9714;51.208;4.242;2023-07-28T05:14:49;20.30;99.90
19164;DHT22;9714;51.208;4.242;2023-07-28T05:17:16;20.20;99.90
19164;DHT22;9714;51.208;4.242;2023-07-28T05:19:50;20.30;99.90
19164;DHT22;9714;51.208;4.242;2023-07-28T05:22:17;20.20;99.90
19164;DHT22;9714;51.208;4.242;2023-07-28T05:24:44;20.10;99.90
19164;DHT22;9714;51.208;4.242;2023-07-28T05:27:11;20.30;99.90
19164;DHT22;9714;51.208;4.242;2023-07-28T05:29:40;20.40;99.90
19164;DHT22;9714;51.208;4.242;2023-07-28T05:32:07;20.50;99.90
19164;DHT22;9714;51.208;4.242;2023-07-28T05:34:34;20.30;99.90
19164;DHT22;9714;51.208;4.242;2023-07-28T05:37:02;20.40;99.90
19164;DHT22;9714;51.208;4.242;2023-07-28T05:39:29;20.40;99.90
19164;DHT22;9714;51.208;4.242;2023-07-28T05:41:56;20.50;99.90
19164;DHT22;9714;51.208;4.242;2023-07-28T05:44:25;20.30;99.90
19164;DHT22;9714;51.208;4.242;2023-07-28T05:46:53;20.50;99.90
19164;DHT22;9714;51.208;4.242;2023-07-28T05:49:21;20.50;99.90
19164;DHT22;9714;51.208;4.242;2023-07-28T05:51:48;20.50;99.90
19164;DHT22;9714;51.208;4.242;2023-07-28T05:54:15;20.30;99.90
19164;DHT22;9714;51.208;4.242;2023-07-28T05:56:42;20.40;99.90
19164;DHT22;9714;51.208;4.242;2023-07-28T05:59:09;20.60;99.90
19164;DHT22;9714;51.208;4.242;2023-07-28T06:01:36;20.70;99.90
19164;DHT22;9714;51.208;4.242;2023-07-28T06:04:05;20.70;99.90
19164;DHT22;9714;51.208;4.242;2023-07-28T06:06:32;20.60;99.90
19164;DHT22;9714;51.208;4.242;2023-07-28T06:08:58;20.70;99.90
19164;DHT22;9714;51.208;4.242;2023-07-28T06:11:25;20.70;99.90
19164;DHT22;9714;51.208;4.242;2023-07-28T06:13:55;20.70;99.90
19164;DHT22;9714;51.208;4.242;2023-07-28T06:16:22;20.80;99.90
19164;DHT22;9714;51.208;4.242;2023-07-28T06:18:51;20.70;99.90
19164;DHT22;9714;51.208;4.242;2023-07-28T06:21:19;20.70;99.90
19164;DHT22;9714;51.208;4.242;2023-07-28T06:23:46;20.90;99.90
19164;DHT22;9714;51.208;4.242;2023-07-28T06:26:13;21.20;99.90
19164;DHT22;9714;51.208;4.242;2023-07-28T06:28:40;21.20;99.90
19164;DHT22;9714;51.208;4.242;2023-07-28T06:31:07;21.20;99.90
19164;DHT22;9714;51.208;4.242;2023-07-28T06:33:34;21.10;99.90
19164;DHT22;9714;51.208;4.242;2023-07-28T06:36:02;21.10;99.90
19164;DHT22;9714;51.208;4.242;2023-07-28T06:38:31;21.10;99.90
19164;DHT22;9714;51.208;4.242;2023-07-28T06:40:58;21.10;99.90
19164;DHT22;9714;51.208;4.242;2023-07-28T06:43:25;21.10;99.90
19164;DHT22;9714;51.208;4.242;2023-07-28T06:45:53;21.00;99.90
19164;DHT22;9714;51.208;4.242;2023-07-28T06:48:20;20.90;99.90
19164;DHT22;9714;51.208;4.242;2023-07-28T06:50:47;21.00;99.90
19164;DHT22;9714;51.208;4.242;2023-07-28T06:53:15;21.00;99.90
19164;DHT22;9714;51.208;4.242;2023-07-28T06:55:44;21.10;99.90
19164;DHT22;9714;51.208;4.242;2023-07-28T06:58:13;21.20;99.90
19164;DHT22;9714;51.208;4.242;2023-07-28T07:00:40;21.10;99.90
19164;DHT22;9714;51.208;4.242;2023-07-28T07:03:08;21.20;99.90
19164;DHT22;9714;51.208;4.242;2023-07-28T07:05:36;21.30;99.90
19164;DHT22;9714;51.208;4.242;2023-07-28T07:08:04;21.30;99.90
19164;DHT22;9714;51.208;4.242;2023-07-28T07:10:31;21.50;99.90
19164;DHT22;9714;51.208;4.242;2023-07-28T07:13:00;21.50;99.90
19164;DHT22;9714;51.208;4.242;2023-07-28T07:15:28;21.50;99.90
19164;DHT22;9714;51.208;4.242;2023-07-28T07:18:01;21.50;99.90
19164;DHT22;9714;51.208;4.242;2023-07-28T07:20:30;21.50;99.90
19164;DHT22;9714;51.208;4.242;2023-07-28T07:23:00;21.50;99.90
19164;DHT22;9714;51.208;4.242;2023-07-28T07:25:31;21.50;99.90
19164;DHT22;9714;51.208;4.242;2023-07-28T07:27:59;21.50;99.90
19164;DHT22;9714;51.208;4.242;2023-07-28T07:30:26;21.50;99.90
19164;DHT22;9714;51.208;4.242;2023-07-28T07:32:55;21.50;99.90
19164;DHT22;9714;51.208;4.242;2023-07-28T07:35:23;21.50;99.90
19164;DHT22;9714;51.208;4.242;2023-07-28T07:37:51;21.70;99.90
19164;DHT22;9714;51.208;4.242;2023-07-28T07:40:18;21.90;99.90
19164;DHT22;9714;51.208;4.242;2023-07-28T07:42:47;21.90;99.90
19164;DHT22;9714;51.208;4.242;2023-07-28T07:45:15;21.80;99.90
19164;DHT22;9714;51.208;4.242;2023-07-28T07:47:43;21.80;99.90
19164;DHT22;9714;51.208;4.242;2023-07-28T07:50:10;22.00;99.90
19164;DHT22;9714;51.208;4.242;2023-07-28T07:52:39;22.00;99.90
19164;DHT22;9714;51.208;4.242;2023-07-28T07:55:08;22.00;99.90
19164;DHT22;9714;51.208;4.242;2023-07-28T07:57:35;22.00;99.90
19164;DHT22;9714;51.208;4.242;2023-07-28T08:00:02;22.20;99.90
19164;DHT22;9714;51.208;4.242;2023-07-28T08:02:32;22.30;99.90
19164;DHT22;9714;51.208;4.242;2023-07-28T08:05:00;22.40;99.90
19164;DHT22;9714;51.208;4.242;2023-07-28T08:07:30;22.50;99.90
19164;DHT22;9714;51.208;4.242;2023-07-28T08:09:57;22.40;99.90
19164;DHT22;9714;51.208;4.242;2023-07-28T08:12:26;22.40;99.90
19164;DHT22;9714;51.208;4.242;2023-07-28T08:14:54;22.50;99.90
19164;DHT22;9714;51.208;4.242;2023-07-28T08:17:28;22.30;99.90
19164;DHT22;9714;51.208;4.242;2023-07-28T08:19:58;22.50;99.90
19164;DHT22;9714;51.208;4.242;2023-07-28T08:22:25;22.60;99.90
19164;DHT22;9714;51.208;4.242;2023-07-28T08:24:54;22.50;99.90
19164;DHT22;9714;51.208;4.242;2023-07-28T08:27:28;22.70;99.90
19164;DHT22;9714;51.208;4.242;2023-07-28T08:29:59;22.80;99.90
19164;DHT22;9714;51.208;4.242;2023-07-28T08:32:30;22.80;99.90
19164;DHT22;9714;51.208;4.242;2023-07-28T08:35:01;22.50;99.90
19164;DHT22;9714;51.208;4.242;2023-07-28T08:37:31;22.60;99.90
19164;DHT22;9714;51.208;4.242;2023-07-28T08:39:59;23.00;99.90
19164;DHT22;9714;51.208;4.242;2023-07-28T08:42:30;23.30;99.90
19164;DHT22;9714;51.208;4.242;2023-07-28T08:44:57;23.50;99.90
19164;DHT22;9714;51.208;4.242;2023-07-28T08:47:28;23.60;99.90
19164;DHT22;9714;51.208;4.242;2023-07-28T08:49:57;23.60;99.90
19164;DHT22;9714;51.208;4.242;2023-07-28T08:52:25;23.90;99.90
19164;DHT22;9714;51.208;4.242;2023-07-28T08:54:53;24.10;99.90
19164;DHT22;9714;51.208;4.242;2023-07-28T08:57:20;24.10;99.90
19164;DHT22;9714;51.208;4.242;2023-07-28T08:59:48;24.20;99.90
19164;DHT22;9714;51.208;4.242;2023-07-28T09:02:17;24.20;99.90
19164;DHT22;9714;51.208;4.242;2023-07-28T09:04:45;24.20;99.90
19164;DHT22;9714;51.208;4.242;2023-07-28T09:07:13;24.30;99.90
19164;DHT22;9714;51.208;4.242;2023-07-28T09:09:42;24.20;99.90
19164;DHT22;9714;51.208;4.242;2023-07-28T09:12:10;24.20;99.90
19164;DHT22;9714;51.208;4.242;2023-07-28T09:14:38;24.50;99.90
19164;DHT22;9714;51.208;4.242;2023-07-28T09:17:10;24.90;99.90
19164;DHT22;9714;51.208;4.242;2023-07-28T09:19:50;25.00;99.90
19164;DHT22;9714;51.208;4.242;2023-07-28T09:22:18;25.20;99.90
19164;DHT22;9714;51.208;4.242;2023-07-28T09:24:48;25.60;99.90
19164;DHT22;9714;51.208;4.242;2023-07-28T09:27:23;25.80;99.90
19164;DHT22;9714;51.208;4.242;2023-07-28T09:29:52;25.90;99.90
19164;DHT22;9714;51.208;4.242;2023-07-28T09:32:27;25.90;99.90
19164;DHT22;9714;51.208;4.242;2023-07-28T09:35:06;26.10;99.90
19164;DHT22;9714;51.208;4.242;2023-07-28T09:37:38;26.30;99.90
19164;DHT22;9714;51.208;4.242;2023-07-28T09:40:10;25.70;99.90
19164;DHT22;9714;51.208;4.242;2023-07-28T09:42:38;25.90;99.90
19164;DHT22;9714;51.208;4.242;2023-07-28T09:45:07;26.50;99.90
19164;DHT22;9714;51.208;4.242;2023-07-28T09:47:35;26.50;99.90
19164;DHT22;9714;51.208;4.242;2023-07-28T09:50:04;26.60;99.90
19164;DHT22;9714;51.208;4.242;2023-07-28T09:52:34;27.00;99.90
19164;DHT22;9714;51.208;4.242;2023-07-28T09:55:06;27.30;99.90
19164;DHT22;9714;51.208;4.242;2023-07-28T09:57:38;27.10;99.90
19164;DHT22;9714;51.208;4.242;2023-07-28T10:00:07;26.70;99.90
19164;DHT22;9714;51.208;4.242;2023-07-28T10:02:37;26.60;99.90
19164;DHT22;9714;51.208;4.242;2023-07-28T10:05:06;26.40;99.90
19164;DHT22;9714;51.208;4.242;2023-07-28T10:07:34;26.10;99.90
19164;DHT22;9714;51.208;4.242;2023-07-28T10:10:03;26.30;99.90
19164;DHT22;9714;51.208;4.242;2023-07-28T10:12:41;26.50;99.90
19164;DHT22;9714;51.208;4.242;2023-07-28T10:15:13;26.40;99.90
19164;DHT22;9714;51.208;4.242;2023-07-28T10:17:44;26.30;99.90
19164;DHT22;9714;51.208;4.242;2023-07-28T10:20:30;25.80;99.90
19164;DHT22;9714;51.208;4.242;2023-07-28T10:23:06;25.90;99.90
19164;DHT22;9714;51.208;4.242;2023-07-28T10:25:34;26.30;99.90
19164;DHT22;9714;51.208;4.242;2023-07-28T10:28:04;26.30;99.90
19164;DHT22;9714;51.208;4.242;2023-07-28T10:30:35;26.20;99.90
19164;DHT22;9714;51.208;4.242;2023-07-28T10:33:06;26.20;99.90
19164;DHT22;9714;51.208;4.242;2023-07-28T10:35:47;26.10;99.90
19164;DHT22;9714;51.208;4.242;2023-07-28T10:38:32;26.40;99.90
19164;DHT22;9714;51.208;4.242;2023-07-28T10:41:10;26.70;99.90
19164;DHT22;9714;51.208;4.242;2023-07-28T10:43:39;27.10;99.90
19164;DHT22;9714;51.208;4.242;2023-07-28T10:46:08;27.80;99.90
19164;DHT22;9714;51.208;4.242;2023-07-28T10:48:36;27.90;99.90
19164;DHT22;9714;51.208;4.242;2023-07-28T10:51:05;27.60;99.90
19164;DHT22;9714;51.208;4.242;2023-07-28T10:53:32;27.20;99.90
19164;DHT22;9714;51.208;4.242;2023-07-28T10:56:02;26.90;99.90
19164;DHT22;9714;51.208;4.242;2023-07-28T10:58:31;26.70;99.90
19164;DHT22;9714;51.208;4.242;2023-07-28T11:01:01;26.30;99.90
19164;DHT22;9714;51.208;4.242;2023-07-28T11:03:31;26.60;99.90
19164;DHT22;9714;51.208;4.242;2023-07-28T11:05:59;26.70;99.90
19164;DHT22;9714;51.208;4.242;2023-07-28T11:08:27;27.00;99.90
19164;DHT22;9714;51.208;4.242;2023-07-28T11:10:55;26.90;99.90
19164;DHT22;9714;51.208;4.242;2023-07-28T11:13:24;26.80;99.90
19164;DHT22;9714;51.208;4.242;2023-07-28T11:15:52;26.30;99.90
19164;DHT22;9714;51.208;4.242;2023-07-28T11:18:20;25.90;99.90
19164;DHT22;9714;51.208;4.242;2023-07-28T11:20:49;25.30;99.90
19164;DHT22;9714;51.208;4.242;2023-07-28T11:23:16;24.80;99.90
19164;DHT22;9714;51.208;4.242;2023-07-28T11:25:43;24.90;99.90
19164;DHT22;9714;51.208;4.242;2023-07-28T11:28:13;25.10;99.90
19164;DHT22;9714;51.208;4.242;2023-07-28T11:30:40;25.50;99.90
19164;DHT22;9714;51.208;4.242;2023-07-28T11:33:11;26.00;99.90
19164;DHT22;9714;51.208;4.242;2023-07-28T11:35:40;26.30;99.90
19164;DHT22;9714;51.208;4.242;2023-07-28T11:38:13;26.20;99.90
19164;DHT22;9714;51.208;4.242;2023-07-28T11:40:41;25.90;99.90
19164;DHT22;9714;51.208;4.242;2023-07-28T11:43:09;26.00;99.90
19164;DHT22;9714;51.208;4.242;2023-07-28T11:45:37;26.20;99.90
19164;DHT22;9714;51.208;4.242;2023-07-28T11:48:06;26.30;99.90
19164;DHT22;9714;51.208;4.242;2023-07-28T11:50:35;25.80;99.90
19164;DHT22;9714;51.208;4.242;2023-07-28T11:53:06;25.40;99.90
19164;DHT22;9714;51.208;4.242;2023-07-28T11:55:34;25.30;99.90
19164;DHT22;9714;51.208;4.242;2023-07-28T11:58:02;25.10;99.90
19164;DHT22;9714;51.208;4.242;2023-07-28T12:00:30;24.90;99.90
19164;DHT22;9714;51.208;4.242;2023-07-28T12:03:07;24.90;99.90
19164;DHT22;9714;51.208;4.242;2023-07-28T12:05:37;24.80;99.90
19164;DHT22;9714;51.208;4.242;2023-07-28T12:08:06;25.00;99.90
19164;DHT22;9714;51.208;4.242;2023-07-28T12:10:34;24.90;99.90
19164;DHT22;9714;51.208;4.242;2023-07-28T12:13:05;25.00;99.90
19164;DHT22;9714;51.208;4.242;2023-07-28T12:15:33;25.00;99.90
19164;DHT22;9714;51.208;4.242;2023-07-28T12:18:08;24.70;99.90
19164;DHT22;9714;51.208;4.242;2023-07-28T12:20:37;25.00;99.90
19164;DHT22;9714;51.208;4.242;2023-07-28T12:23:06;25.50;99.90
19164;DHT22;9714;51.208;4.242;2023-07-28T12:25:35;25.90;99.90
19164;DHT22;9714;51.208;4.242;2023-07-28T12:28:03;26.50;99.90
19164;DHT22;9714;51.208;4.242;2023-07-28T12:30:30;26.80;99.90
19164;DHT22;9714;51.208;4.242;2023-07-28T12:32:58;26.90;99.90
19164;DHT22;9714;51.208;4.242;2023-07-28T12:35:26;27.00;99.90
19164;DHT22;9714;51.208;4.242;2023-07-28T12:37:57;26.30;99.90
19164;DHT22;9714;51.208;4.242;2023-07-28T12:40:29;25.90;99.90
19164;DHT22;9714;51.208;4.242;2023-07-28T12:42:57;26.00;99.90
19164;DHT22;9714;51.208;4.242;2023-07-28T12:45:24;25.90;99.90
19164;DHT22;9714;51.208;4.242;2023-07-28T12:47:52;25.50;99.90
19164;DHT22;9714;51.208;4.242;2023-07-28T12:50:20;25.10;99.90
19164;DHT22;9714;51.208;4.242;2023-07-28T12:52:47;25.10;99.90
19164;DHT22;9714;51.208;4.242;2023-07-28T12:55:15;25.30;99.90
19164;DHT22;9714;51.208;4.242;2023-07-28T12:57:44;25.50;99.90
19164;DHT22;9714;51.208;4.242;2023-07-28T13:00:14;25.90;99.90
19164;DHT22;9714;51.208;4.242;2023-07-28T13:02:42;26.10;99.90
19164;DHT22;9714;51.208;4.242;2023-07-28T13:05:10;26.20;99.90
19164;DHT22;9714;51.208;4.242;2023-07-28T13:07:39;26.10;99.90
19164;DHT22;9714;51.208;4.242;2023-07-28T13:10:09;26.40;99.90
19164;DHT22;9714;51.208;4.242;2023-07-28T13:12:37;27.00;99.90
19164;DHT22;9714;51.208;4.242;2023-07-28T13:15:06;27.00;99.90
19164;DHT22;9714;51.208;4.242;2023-07-28T13:17:34;26.50;99.90
19164;DHT22;9714;51.208;4.242;2023-07-28T13:20:01;26.10;99.90
19164;DHT22;9714;51.208;4.242;2023-07-28T13:22:28;26.00;99.90
19164;DHT22;9714;51.208;4.242;2023-07-28T13:24:55;25.80;99.90
19164;DHT22;9714;51.208;4.242;2023-07-28T13:27:22;25.90;99.90
19164;DHT22;9714;51.208;4.242;2023-07-28T13:29:50;26.30;99.90
19164;DHT22;9714;51.208;4.242;2023-07-28T13:32:22;26.70;99.90
19164;DHT22;9714;51.208;4.242;2023-07-28T13:34:50;27.00;99.90
19164;DHT22;9714;51.208;4.242;2023-07-28T13:37:17;27.60;99.90
19164;DHT22;9714;51.208;4.242;2023-07-28T13:39:45;28.30;99.90
19164;DHT22;9714;51.208;4.242;2023-07-28T13:42:12;29.10;99.90
19164;DHT22;9714;51.208;4.242;2023-07-28T13:44:41;30.10;99.90
19164;DHT22;9714;51.208;4.242;2023-07-28T13:47:10;30.40;99.90
19164;DHT22;9714;51.208;4.242;2023-07-28T13:49:38;29.50;99.90
19164;DHT22;9714;51.208;4.242;2023-07-28T13:52:06;28.80;99.90
19164;DHT22;9714;51.208;4.242;2023-07-28T13:54:33;28.20;99.90
19164;DHT22;9714;51.208;4.242;2023-07-28T13:57:00;28.20;99.90
19164;DHT22;9714;51.208;4.242;2023-07-28T13:59:28;27.90;99.90
19164;DHT22;9714;51.208;4.242;2023-07-28T14:01:55;27.60;99.90
19164;DHT22;9714;51.208;4.242;2023-07-28T14:04:24;27.20;99.90
19164;DHT22;9714;51.208;4.242;2023-07-28T14:06:54;26.70;99.90
19164;DHT22;9714;51.208;4.242;2023-07-28T14:09:21;26.60;99.90
19164;DHT22;9714;51.208;4.242;2023-07-28T14:11:48;26.50;99.90
19164;DHT22;9714;51.208;4.242;2023-07-28T14:14:16;26.40;99.90
19164;DHT22;9714;51.208;4.242;2023-07-28T14:16:43;26.40;99.90
19164;DHT22;9714;51.208;4.242;2023-07-28T14:19:10;26.40;99.90
19164;DHT22;9714;51.208;4.242;2023-07-28T14:21:38;26.50;99.90
19164;DHT22;9714;51.208;4.242;2023-07-28T14:24:06;26.40;99.90
19164;DHT22;9714;51.208;4.242;2023-07-28T14:26:33;26.80;99.90
19164;DHT22;9714;51.208;4.242;2023-07-28T14:29:00;27.00;99.90
19164;DHT22;9714;51.208;4.242;2023-07-28T14:31:27;27.20;99.90
19164;DHT22;9714;51.208;4.242;2023-07-28T14:33:54;27.40;99.90
19164;DHT22;9714;51.208;4.242;2023-07-28T14:36:21;27.80;99.90
19164;DHT22;9714;51.208;4.242;2023-07-28T14:38:48;28.10;99.90
19164;DHT22;9714;51.208;4.242;2023-07-28T14:41:17;28.10;99.90
19164;DHT22;9714;51.208;4.242;2023-07-28T14:43:45;28.10;99.90
19164;DHT22;9714;51.208;4.242;2023-07-28T14:46:12;27.90;99.90
19164;DHT22;9714;51.208;4.242;2023-07-28T14:48:39;27.80;99.90
19164;DHT22;9714;51.208;4.242;2023-07-28T14:51:06;28.20;99.90
19164;DHT22;9714;51.208;4.242;2023-07-28T14:53:35;28.80;99.90
19164;DHT22;9714;51.208;4.242;2023-07-28T14:56:03;28.80;99.90
19164;DHT22;9714;51.208;4.242;2023-07-28T14:58:32;29.40;99.90
19164;DHT22;9714;51.208;4.242;2023-07-28T15:00:59;29.60;99.90
19164;DHT22;9714;51.208;4.242;2023-07-28T15:03:29;29.80;99.90
19164;DHT22;9714;51.208;4.242;2023-07-28T15:05:57;29.90;99.90
19164;DHT22;9714;51.208;4.242;2023-07-28T15:08:26;30.10;99.90
19164;DHT22;9714;51.208;4.242;2023-07-28T15:10:55;31.00;99.90
19164;DHT22;9714;51.208;4.242;2023-07-28T15:13:22;31.80;99.90
19164;DHT22;9714;51.208;4.242;2023-07-28T15:15:52;32.60;97.30
19164;DHT22;9714;51.208;4.242;2023-07-28T15:18:20;32.90;94.70
19164;DHT22;9714;51.208;4.242;2023-07-28T15:20:47;33.00;93.20
19164;DHT22;9714;51.208;4.242;2023-07-28T15:23:16;33.80;91.50
19164;DHT22;9714;51.208;4.242;2023-07-28T15:25:43;33.40;89.50
19164;DHT22;9714;51.208;4.242;2023-07-28T15:28:14;32.60;91.20
19164;DHT22;9714;51.208;4.242;2023-07-28T15:30:41;33.50;90.30
19164;DHT22;9714;51.208;4.242;2023-07-28T15:33:10;33.30;87.90
19164;DHT22;9714;51.208;4.242;2023-07-28T15:35:38;32.40;88.60
19164;DHT22;9714;51.208;4.242;2023-07-28T15:38:07;32.00;90.60
19164;DHT22;9714;51.208;4.242;2023-07-28T15:40:34;32.60;90.50
19164;DHT22;9714;51.208;4.242;2023-07-28T15:43:01;32.80;87.90
19164;DHT22;9714;51.208;4.242;2023-07-28T15:45:30;32.80;87.90
19164;DHT22;9714;51.208;4.242;2023-07-28T15:47:59;32.30;87.50
19164;DHT22;9714;51.208;4.242;2023-07-28T15:50:28;31.60;89.20
19164;DHT22;9714;51.208;4.242;2023-07-28T15:52:55;31.20;90.90